Zion Crossroads, Virginia
Current Conditions -  °F | °C
As of 1:35 PM on Monday 26 Jan 2015 (Local Time) from KGVE Reporting Station
Overcast Overcast  
Wind Chill: 29°   Ceiling: 700
Heat Index: 35°   Visibility: 10mi
Dew Point: 34°   Wind: 7mph
Humidity: 94%   Direction: 30°NNE
Pressure: 29.68"   Gusts: NA
Location:  38.0919°N, 78.1851°W
Report Text: KGVE 261835Z AUTO 03006KT 10SM OVC007 02/01 A2968 RMK AO1 T00180010
Loading
Personal Weather Stations






























Interactive Weather Map New forecast layout! Learn more

10-Day Weather Forecast

Advertisements
Track Severe Weather on mobile